createdAt,value
2018-04-26T00:00:47.423Z,0
2018-04-26T00:01:47.341Z,0
2018-04-26T00:02:47.321Z,0
2018-04-26T00:03:47.308Z,0
2018-04-26T00:04:47.445Z,0
2018-04-26T00:05:47.341Z,0
2018-04-26T00:06:47.340Z,0
2018-04-26T00:07:47.417Z,0
2018-04-26T00:08:47.341Z,0
2018-04-26T00:09:47.344Z,0
2018-04-26T00:10:47.341Z,0
2018-04-26T00:11:47.345Z,0
2018-04-26T00:12:47.343Z,0
2018-04-26T00:13:47.416Z,0
2018-04-26T00:14:47.345Z,0
2018-04-26T00:15:47.435Z,0
2018-04-26T00:16:47.384Z,0
2018-04-26T00:17:47.447Z,0
2018-04-26T00:18:47.377Z,0
2018-04-26T00:19:47.382Z,0
2018-04-26T00:20:47.353Z,0
2018-04-26T00:21:47.337Z,0
2018-04-26T00:22:47.446Z,0
2018-04-26T00:23:47.437Z,0
2018-04-26T00:24:47.437Z,0
2018-04-26T00:25:47.429Z,0
2018-04-26T00:26:47.356Z,0
2018-04-26T00:27:47.360Z,0
2018-04-26T00:28:47.346Z,0
2018-04-26T00:29:47.420Z,0
2018-04-26T00:30:47.458Z,0
2018-04-26T00:31:47.326Z,0
2018-04-26T00:32:47.344Z,0
2018-04-26T00:33:47.361Z,0
2018-04-26T00:34:47.347Z,0
2018-04-26T00:35:47.351Z,0
2018-04-26T00:36:47.455Z,0
2018-04-26T00:37:47.395Z,0
2018-04-26T00:38:47.368Z,0
2018-04-26T00:39:47.401Z,0
2018-04-26T00:40:47.370Z,0
2018-04-26T00:41:47.530Z,0
2018-04-26T00:42:47.410Z,0
2018-04-26T00:43:47.434Z,0
2018-04-26T00:44:47.444Z,0
2018-04-26T00:45:47.410Z,0
2018-04-26T00:46:47.425Z,0
2018-04-26T00:47:47.424Z,0
2018-04-26T00:48:47.329Z,0
2018-04-26T00:49:47.307Z,0
2018-04-26T00:50:47.424Z,0
2018-04-26T00:51:47.395Z,0
2018-04-26T00:52:47.428Z,0
2018-04-26T00:53:47.377Z,0
2018-04-26T00:54:47.373Z,0
2018-04-26T00:55:47.492Z,0
2018-04-26T00:56:47.370Z,0
2018-04-26T00:57:47.373Z,0
2018-04-26T00:58:47.443Z,0
2018-04-26T00:59:47.446Z,0
2018-04-26T01:00:47.371Z,0
2018-04-26T01:01:47.450Z,0
2018-04-26T01:02:47.449Z,0
2018-04-26T01:03:47.377Z,0
2018-04-26T01:04:47.447Z,0
2018-04-26T01:05:47.342Z,0
2018-04-26T01:06:47.378Z,0
2018-04-26T01:07:47.453Z,0
2018-04-26T01:08:47.451Z,0
2018-04-26T01:09:47.409Z,0
2018-04-26T01:10:47.457Z,0
2018-04-26T01:11:47.459Z,0
2018-04-26T01:12:47.413Z,0
2018-04-26T01:13:47.394Z,0
2018-04-26T01:14:47.379Z,0
2018-04-26T01:15:47.390Z,0
2018-04-26T01:16:47.325Z,0
2018-04-26T01:17:47.357Z,0
2018-04-26T01:18:47.377Z,0
2018-04-26T01:19:47.332Z,0
2018-04-26T01:20:47.349Z,0
2018-04-26T01:21:47.350Z,0
2018-04-26T01:22:47.417Z,0
2018-04-26T01:23:47.439Z,0
2018-04-26T01:24:47.351Z,0
2018-04-26T01:25:47.466Z,0
2018-04-26T01:26:47.460Z,0
2018-04-26T01:27:47.461Z,0
2018-04-26T01:28:47.460Z,0
2018-04-26T01:29:47.447Z,0
2018-04-26T01:30:47.468Z,0
2018-04-26T01:31:47.396Z,0
2018-04-26T01:32:47.459Z,0
2018-04-26T01:33:47.485Z,0
2018-04-26T01:34:47.477Z,0
2018-04-26T01:35:47.370Z,0
2018-04-26T01:36:47.386Z,0
2018-04-26T01:37:47.418Z,0
2018-04-26T01:38:47.421Z,0
2018-04-26T01:39:47.383Z,0
2018-04-26T01:40:47.386Z,0
2018-04-26T01:41:47.427Z,0
2018-04-26T01:42:47.487Z,0
2018-04-26T01:43:47.424Z,0
2018-04-26T01:44:47.328Z,0
2018-04-26T01:45:47.455Z,0
2018-04-26T01:46:47.375Z,0
2018-04-26T01:47:47.503Z,0
2018-04-26T01:48:47.474Z,0
2018-04-26T01:49:47.390Z,0
2018-04-26T01:50:47.508Z,0
2018-04-26T01:51:47.509Z,0
2018-04-26T01:52:47.501Z,0
2018-04-26T01:53:47.484Z,0
2018-04-26T01:54:47.474Z,0
2018-04-26T01:55:47.473Z,0
2018-04-26T01:56:47.475Z,0
2018-04-26T01:57:47.486Z,0
2018-04-26T01:58:47.541Z,0
2018-04-26T01:59:47.385Z,0
2018-04-26T02:00:47.396Z,0
2018-04-26T02:01:47.480Z,0
2018-04-26T02:02:47.519Z,0
2018-04-26T02:03:47.420Z,0
2018-04-26T02:04:47.464Z,0
2018-04-26T02:05:47.406Z,0
2018-04-26T02:06:47.478Z,0
2018-04-26T02:07:47.409Z,0
2018-04-26T02:08:47.409Z,0
2018-04-26T02:09:47.480Z,0
2018-04-26T02:10:47.418Z,0
2018-04-26T02:11:47.408Z,0
2018-04-26T02:12:47.480Z,0
2018-04-26T02:13:47.442Z,0
2018-04-26T02:14:47.506Z,0
2018-04-26T02:15:47.483Z,0
2018-04-26T02:16:47.396Z,0
2018-04-26T02:17:47.573Z,0
2018-04-26T02:18:47.487Z,0
2018-04-26T02:19:47.397Z,0
2018-04-26T02:20:47.487Z,0
2018-04-26T02:21:47.443Z,0
2018-04-26T02:22:47.489Z,0
2018-04-26T02:23:47.475Z,0
2018-04-26T02:24:47.401Z,0
2018-04-26T02:25:47.428Z,0
2018-04-26T02:26:47.428Z,0
2018-04-26T02:27:47.432Z,0
2018-04-26T02:28:47.501Z,0
2018-04-26T02:29:47.505Z,0
2018-04-26T02:30:47.436Z,0
2018-04-26T02:31:47.510Z,0
2018-04-26T02:32:47.453Z,0
2018-04-26T02:33:47.503Z,0
2018-04-26T02:34:47.435Z,0
2018-04-26T02:35:47.405Z,0
2018-04-26T02:36:47.500Z,0
2018-04-26T02:37:47.428Z,0
2018-04-26T02:38:47.518Z,0
2018-04-26T02:39:47.466Z,0
2018-04-26T02:40:47.443Z,0
2018-04-26T02:41:47.547Z,0
2018-04-26T02:42:47.510Z,0
2018-04-26T02:43:47.516Z,0
2018-04-26T02:44:47.515Z,0
2018-04-26T02:45:47.413Z,0
2018-04-26T02:46:47.529Z,0
2018-04-26T02:47:47.536Z,0
2018-04-26T02:48:47.522Z,0
2018-04-26T02:49:47.484Z,0
2018-04-26T02:50:47.510Z,0
2018-04-26T02:51:47.643Z,0
2018-04-26T02:52:47.509Z,0
2018-04-26T02:53:47.515Z,0
2018-04-26T02:54:47.552Z,0
2018-04-26T02:55:47.444Z,0
2018-04-26T02:56:47.521Z,0
2018-04-26T02:57:47.450Z,0
2018-04-26T02:58:47.484Z,0
2018-04-26T02:59:47.451Z,0
2018-04-26T03:00:47.521Z,0
2018-04-26T03:01:47.491Z,0
2018-04-26T03:02:47.452Z,0
2018-04-26T03:03:47.523Z,0
2018-04-26T03:04:47.453Z,0
2018-04-26T03:05:47.489Z,0
2018-04-26T03:06:47.454Z,0
2018-04-26T03:07:47.450Z,0
2018-04-26T03:08:47.481Z,0
2018-04-26T03:09:47.445Z,0
2018-04-26T03:10:47.490Z,0
2018-04-26T03:11:47.465Z,0
2018-04-26T03:12:47.565Z,0
2018-04-26T03:13:47.547Z,0
2018-04-26T03:14:47.430Z,0
2018-04-26T03:15:47.529Z,0
2018-04-26T03:16:47.493Z,0
2018-04-26T03:17:47.499Z,0
2018-04-26T03:18:47.524Z,0
2018-04-26T03:19:47.487Z,0
2018-04-26T03:20:47.432Z,0
2018-04-26T03:21:47.553Z,0
2018-04-26T03:22:47.548Z,0
2018-04-26T03:23:47.469Z,0
2018-04-26T03:24:47.489Z,0
2018-04-26T03:25:47.555Z,0
2018-04-26T03:26:47.469Z,0
2018-04-26T03:27:47.531Z,0
2018-04-26T03:28:47.560Z,0
2018-04-26T03:29:47.533Z,0
2018-04-26T03:30:47.555Z,0
2018-04-26T03:31:47.518Z,0
2018-04-26T03:32:47.554Z,0
2018-04-26T03:33:47.596Z,0
2018-04-26T03:34:47.510Z,0
2018-04-26T03:35:47.471Z,0
2018-04-26T03:36:47.539Z,0
2018-04-26T03:37:47.471Z,0
2018-04-26T03:38:47.541Z,0
2018-04-26T03:39:47.473Z,0
2018-04-26T03:40:47.544Z,0
2018-04-26T03:41:47.475Z,0
2018-04-26T03:42:47.546Z,0
2018-04-26T03:43:47.540Z,0
2018-04-26T03:44:47.427Z,0
2018-04-26T03:45:47.529Z,0
2018-04-26T03:46:47.506Z,0
2018-04-26T03:47:47.506Z,0
2018-04-26T03:48:47.564Z,0
2018-04-26T03:49:47.485Z,0
2018-04-26T03:50:47.511Z,0
2018-04-26T03:51:47.538Z,0
2018-04-26T03:52:47.573Z,0
2018-04-26T03:53:47.552Z,0
2018-04-26T03:54:47.521Z,0
2018-04-26T03:55:47.486Z,0
2018-04-26T03:56:47.556Z,5
2018-04-26T03:57:47.491Z,5
2018-04-26T03:58:47.485Z,0
2018-04-26T03:59:47.559Z,0
2018-04-26T04:00:47.499Z,0
2018-04-26T04:01:47.487Z,5
2018-04-26T04:02:47.487Z,5
2018-04-26T04:03:47.505Z,5
2018-04-26T04:04:47.490Z,11
2018-04-26T04:05:47.482Z,11
2018-04-26T04:06:47.557Z,16
2018-04-26T04:07:47.558Z,22
2018-04-26T04:08:47.593Z,22
2018-04-26T04:09:47.556Z,16
2018-04-26T04:10:47.486Z,16
2018-04-26T04:11:47.590Z,11
2018-04-26T04:12:47.466Z,16
2018-04-26T04:13:47.596Z,22
2018-04-26T04:14:47.563Z,28
2018-04-26T04:15:47.507Z,28
2018-04-26T04:16:47.561Z,28
2018-04-26T04:17:47.468Z,28
2018-04-26T04:18:47.472Z,28
2018-04-26T04:19:47.489Z,33
2018-04-26T04:20:47.529Z,39
2018-04-26T04:21:47.561Z,39
2018-04-26T04:22:47.564Z,39
2018-04-26T04:23:47.555Z,39
2018-04-26T04:24:47.532Z,56
2018-04-26T04:25:47.567Z,61
2018-04-26T04:26:47.576Z,61
2018-04-26T04:27:47.508Z,67
2018-04-26T04:28:47.495Z,67
2018-04-26T04:29:47.583Z,73
2018-04-26T04:30:47.596Z,101
2018-04-26T04:31:47.493Z,118
2018-04-26T04:32:47.540Z,123
2018-04-26T04:33:47.551Z,129
2018-04-26T04:34:47.539Z,123
2018-04-26T04:35:47.574Z,118
2018-04-26T04:36:47.507Z,112
2018-04-26T04:37:47.513Z,112
2018-04-26T04:38:47.511Z,106
2018-04-26T04:39:47.581Z,106
2018-04-26T04:40:47.507Z,101
2018-04-26T04:41:47.515Z,112
2018-04-26T04:42:47.583Z,118
2018-04-26T04:43:47.509Z,112
2018-04-26T04:44:47.480Z,90
2018-04-26T04:45:47.588Z,73
2018-04-26T04:46:47.532Z,73
2018-04-26T04:47:47.520Z,84
2018-04-26T04:48:47.581Z,101
2018-04-26T04:49:47.465Z,118
2018-04-26T04:50:47.521Z,112
2018-04-26T04:51:47.517Z,95
2018-04-26T04:52:47.594Z,84
2018-04-26T04:53:47.522Z,67
2018-04-26T04:54:47.518Z,56
2018-04-26T04:55:47.486Z,50
2018-04-26T04:56:47.527Z,50
2018-04-26T04:57:47.524Z,50
2018-04-26T04:58:47.598Z,67
2018-04-26T04:59:47.522Z,90
2018-04-26T05:00:47.478Z,112
2018-04-26T05:01:47.528Z,118
2018-04-26T05:02:47.603Z,174
2018-04-26T05:03:47.525Z,247
2018-04-26T05:04:47.475Z,281
2018-04-26T05:05:47.530Z,298
2018-04-26T05:06:47.591Z,270
2018-04-26T05:07:47.534Z,225
2018-04-26T05:08:47.598Z,129
2018-04-26T05:09:47.561Z,61
2018-04-26T05:10:47.604Z,39
2018-04-26T05:11:47.598Z,28
2018-04-26T05:12:47.599Z,22
2018-04-26T05:13:47.599Z,22
2018-04-26T05:14:47.612Z,28
2018-04-26T05:15:47.643Z,28
2018-04-26T05:16:47.575Z,33
2018-04-26T05:17:47.503Z,39
2018-04-26T05:18:47.567Z,39
2018-04-26T05:19:47.671Z,45
2018-04-26T05:20:47.527Z,56
2018-04-26T05:21:47.623Z,90
2018-04-26T05:22:47.627Z,123
2018-04-26T05:23:47.637Z,135
2018-04-26T05:24:47.605Z,140
2018-04-26T05:25:47.608Z,140
2018-04-26T05:26:47.550Z,151
2018-04-26T05:27:47.543Z,174
2018-04-26T05:28:47.608Z,191
2018-04-26T05:29:47.607Z,213
2018-04-26T05:30:47.540Z,213
2018-04-26T05:31:47.614Z,185
2018-04-26T05:32:47.619Z,163
2018-04-26T05:33:47.597Z,174
2018-04-26T05:34:47.612Z,196
2018-04-26T05:35:47.568Z,230
2018-04-26T05:36:47.579Z,275
2018-04-26T05:37:47.643Z,376
2018-04-26T05:38:47.585Z,433
2018-04-26T05:39:47.525Z,455
2018-04-26T05:40:47.577Z,399
2018-04-26T05:41:47.639Z,298
2018-04-26T05:42:47.581Z,270
2018-04-26T05:43:47.621Z,236
2018-04-26T05:44:47.519Z,196
2018-04-26T05:45:47.580Z,208
2018-04-26T05:46:47.586Z,180
2018-04-26T05:47:47.597Z,151
2018-04-26T05:48:47.649Z,146
2018-04-26T05:49:47.589Z,140
2018-04-26T05:50:47.521Z,180
2018-04-26T05:51:47.620Z,264
2018-04-26T05:52:47.596Z,388
2018-04-26T05:53:47.591Z,461
2018-04-26T05:54:47.642Z,528
2018-04-26T05:55:47.689Z,585
2018-04-26T05:56:47.559Z,528
2018-04-26T05:57:47.567Z,517
2018-04-26T05:58:47.561Z,511
2018-04-26T05:59:47.630Z,556
2018-04-26T06:00:47.564Z,630
2018-04-26T06:01:47.561Z,736
2018-04-26T06:02:47.630Z,793
2018-04-26T06:03:47.622Z,663
2018-04-26T06:04:47.651Z,663
2018-04-26T06:05:47.606Z,641
2018-04-26T06:06:47.575Z,725
2018-04-26T06:07:47.632Z,883
2018-04-26T06:08:47.570Z,978
2018-04-26T06:09:47.633Z,736
2018-04-26T06:10:47.573Z,472
2018-04-26T06:11:47.568Z,360
2018-04-26T06:12:47.645Z,298
2018-04-26T06:13:47.566Z,253
2018-04-26T06:14:47.646Z,213
2018-04-26T06:15:47.570Z,208
2018-04-26T06:16:47.652Z,213
2018-04-26T06:17:47.639Z,213
2018-04-26T06:18:47.570Z,146
2018-04-26T06:19:47.641Z,146
2018-04-26T06:20:47.591Z,168
2018-04-26T06:21:47.645Z,208
2018-04-26T06:22:47.575Z,213
2018-04-26T06:23:47.614Z,213
2018-04-26T06:24:47.650Z,247
2018-04-26T06:25:47.644Z,326
2018-04-26T06:26:47.579Z,438
2018-04-26T06:27:47.580Z,551
2018-04-26T06:28:47.644Z,641
2018-04-26T06:29:47.588Z,731
2018-04-26T06:30:47.651Z,810
2018-04-26T06:31:47.652Z,877
2018-04-26T06:32:47.584Z,793
2018-04-26T06:33:47.577Z,618
2018-04-26T06:34:47.651Z,500
2018-04-26T06:35:47.686Z,478
2018-04-26T06:36:47.552Z,483
2018-04-26T06:37:47.638Z,495
2018-04-26T06:38:47.607Z,545
2018-04-26T06:39:47.555Z,596
2018-04-26T06:40:47.542Z,663
2018-04-26T06:41:47.581Z,781
2018-04-26T06:42:47.547Z,849
2018-04-26T06:43:47.595Z,810
2018-04-26T06:44:47.528Z,776
2018-04-26T06:45:47.599Z,798
2018-04-26T06:46:47.580Z,826
2018-04-26T06:47:47.772Z,860
2018-04-26T06:48:47.681Z,883
2018-04-26T06:49:47.694Z,883
2018-04-26T06:50:47.636Z,866
2018-04-26T06:51:47.580Z,843
2018-04-26T06:52:47.660Z,765
2018-04-26T06:53:47.696Z,691
2018-04-26T06:54:47.623Z,658
2018-04-26T06:55:47.621Z,613
2018-04-26T06:56:47.599Z,635
2018-04-26T06:57:47.671Z,669
2018-04-26T06:58:47.597Z,680
2018-04-26T06:59:47.708Z,720
2018-04-26T07:00:47.673Z,815
2018-04-26T07:01:47.599Z,961
2018-04-26T07:02:47.604Z,1102
2018-04-26T07:03:47.671Z,1243
2018-04-26T07:04:47.597Z,1389
2018-04-26T07:05:47.719Z,1625
2018-04-26T07:06:47.633Z,3054
2018-04-26T07:07:47.649Z,2795
2018-04-26T07:08:47.654Z,1845
2018-04-26T07:09:47.578Z,1333
2018-04-26T07:10:47.674Z,922
2018-04-26T07:11:47.599Z,590
2018-04-26T07:12:47.751Z,399
2018-04-26T07:13:47.637Z,315
2018-04-26T07:14:48.517Z,286
2018-04-26T07:15:47.584Z,303
2018-04-26T07:16:47.628Z,354
2018-04-26T07:17:47.679Z,438
2018-04-26T07:18:47.678Z,500
2018-04-26T07:19:47.686Z,489
2018-04-26T07:20:47.610Z,511
2018-04-26T07:21:47.680Z,523
2018-04-26T07:22:47.622Z,562
2018-04-26T07:23:47.680Z,607
2018-04-26T07:24:47.690Z,720
2018-04-26T07:25:47.613Z,871
2018-04-26T07:26:47.687Z,1051
2018-04-26T07:27:47.567Z,1181
2018-04-26T07:28:47.573Z,1203
2018-04-26T07:29:47.639Z,1198
2018-04-26T07:30:47.591Z,1164
2018-04-26T07:31:47.676Z,1113
2018-04-26T07:32:47.621Z,1091
2018-04-26T07:33:47.555Z,1085
2018-04-26T07:34:47.704Z,1080
2018-04-26T07:35:47.672Z,1119
2018-04-26T07:36:47.584Z,1209
2018-04-26T07:37:47.670Z,1271
2018-04-26T07:38:47.641Z,1282
2018-04-26T07:39:47.678Z,1265
2018-04-26T07:40:47.676Z,1237
2018-04-26T07:41:47.676Z,1321
2018-04-26T07:42:47.565Z,1912
2018-04-26T07:43:47.564Z,1732
2018-04-26T07:44:47.647Z,1670
2018-04-26T07:45:47.561Z,1580
2018-04-26T07:46:47.703Z,1490
2018-04-26T07:47:47.638Z,1445
2018-04-26T07:48:47.723Z,1501
2018-04-26T07:49:47.648Z,2941
2018-04-26T07:50:47.702Z,3251
2018-04-26T07:51:47.635Z,3510
2018-04-26T07:52:47.633Z,3560
2018-04-26T07:53:47.700Z,3560
2018-04-26T07:54:47.636Z,3583
2018-04-26T07:55:47.705Z,3521
2018-04-26T07:56:47.638Z,3459
2018-04-26T07:57:47.635Z,3189
2018-04-26T07:58:47.702Z,2115
2018-04-26T07:59:47.634Z,3245
2018-04-26T08:00:47.726Z,3262
2018-04-26T08:01:47.757Z,3493
2018-04-26T08:02:47.586Z,3543
2018-04-26T08:03:47.637Z,3600
2018-04-26T08:04:47.661Z,3532
2018-04-26T08:05:47.685Z,3684
2018-04-26T08:06:47.609Z,4280
2018-04-26T08:07:47.605Z,4365
2018-04-26T08:08:47.562Z,4753
2018-04-26T08:09:47.608Z,4106
2018-04-26T08:10:47.665Z,2626
2018-04-26T08:11:47.682Z,2238
2018-04-26T08:12:47.658Z,2278
2018-04-26T08:13:47.610Z,2233
2018-04-26T08:14:47.664Z,1901
2018-04-26T08:15:47.662Z,1608
2018-04-26T08:16:47.700Z,1642
2018-04-26T08:17:47.577Z,2041
2018-04-26T08:18:47.640Z,2250
2018-04-26T08:19:47.619Z,2345
2018-04-26T08:20:47.642Z,2064
2018-04-26T08:21:47.592Z,2615
2018-04-26T08:22:47.610Z,1710
2018-04-26T08:23:47.678Z,1468
2018-04-26T08:24:47.608Z,1153
2018-04-26T08:25:47.613Z,939
2018-04-26T08:26:47.760Z,1006
2018-04-26T08:27:47.754Z,1068
2018-04-26T08:28:47.693Z,1006
2018-04-26T08:29:47.755Z,928
2018-04-26T08:30:47.755Z,838
2018-04-26T08:31:47.688Z,933
2018-04-26T08:32:47.690Z,1181
2018-04-26T08:33:47.630Z,1524
2018-04-26T08:34:47.743Z,2058
2018-04-26T08:35:47.743Z,2418
2018-04-26T08:36:47.703Z,2896
2018-04-26T08:37:47.704Z,4578
2018-04-26T08:38:47.695Z,2784
2018-04-26T08:39:47.726Z,2913
2018-04-26T08:40:47.731Z,5068
2018-04-26T08:41:47.712Z,2368
2018-04-26T08:42:47.693Z,3116
2018-04-26T08:43:47.766Z,2334
2018-04-26T08:44:47.639Z,2199
2018-04-26T08:45:47.637Z,2385
2018-04-26T08:46:47.735Z,4303
2018-04-26T08:47:47.765Z,5298
2018-04-26T08:48:47.653Z,3307
2018-04-26T08:49:47.644Z,2604
2018-04-26T08:50:47.696Z,2390
2018-04-26T08:51:47.702Z,2660
2018-04-26T08:52:47.771Z,5501
2018-04-26T08:53:47.717Z,5259
2018-04-26T08:54:47.699Z,2058
2018-04-26T08:55:47.704Z,2272
2018-04-26T08:56:47.777Z,1895
2018-04-26T08:57:47.649Z,5439
2018-04-26T08:58:47.676Z,1912
2018-04-26T08:59:47.853Z,2311
2018-04-26T09:00:47.645Z,4455
2018-04-26T09:01:47.770Z,5259
2018-04-26T09:02:47.708Z,5073
2018-04-26T09:03:47.685Z,5298
2018-04-26T09:04:47.714Z,5439
2018-04-26T09:05:47.747Z,4792
2018-04-26T09:06:47.712Z,6288
2018-04-26T09:07:47.743Z,2424
2018-04-26T09:08:47.748Z,5411
2018-04-26T09:09:47.686Z,1771
2018-04-26T09:10:47.781Z,1490
2018-04-26T09:11:47.685Z,3183
2018-04-26T09:12:47.753Z,1816
2018-04-26T09:13:47.683Z,1850
2018-04-26T09:14:47.756Z,1951
2018-04-26T09:15:47.762Z,1698
2018-04-26T09:16:47.683Z,1383
2018-04-26T09:17:47.689Z,877
2018-04-26T09:18:47.755Z,871
2018-04-26T09:19:47.687Z,1271
2018-04-26T09:20:47.774Z,1676
2018-04-26T09:21:47.691Z,1800
2018-04-26T09:22:47.756Z,1918
2018-04-26T09:23:47.685Z,1946
2018-04-26T09:24:47.765Z,2008
2018-04-26T09:25:47.698Z,2103
2018-04-26T09:26:47.645Z,3881
2018-04-26T09:27:47.744Z,5270
2018-04-26T09:28:47.709Z,5400
2018-04-26T09:29:47.708Z,5473
2018-04-26T09:30:47.673Z,5490
2018-04-26T09:31:47.699Z,5478
2018-04-26T09:32:47.647Z,5484
2018-04-26T09:33:47.833Z,5731
2018-04-26T09:34:47.692Z,2970
2018-04-26T09:35:47.707Z,3504
2018-04-26T09:36:47.767Z,5540
2018-04-26T09:37:47.700Z,5214
2018-04-26T09:38:47.814Z,4668
2018-04-26T09:39:47.763Z,5698
2018-04-26T09:40:47.697Z,5838
2018-04-26T09:41:47.700Z,2323
2018-04-26T09:42:47.775Z,4246
2018-04-26T09:43:47.700Z,5433
2018-04-26T09:44:47.771Z,4635
2018-04-26T09:45:47.708Z,4263
2018-04-26T09:46:47.770Z,5636
2018-04-26T09:47:47.778Z,5484
2018-04-26T09:48:47.706Z,5641
2018-04-26T09:49:47.777Z,6041
2018-04-26T09:50:47.704Z,6260
2018-04-26T09:51:47.706Z,4899
2018-04-26T09:52:47.780Z,5287
2018-04-26T09:53:47.707Z,5658
2018-04-26T09:54:47.780Z,5698
2018-04-26T09:55:47.739Z,5883
2018-04-26T09:56:47.777Z,4606
2018-04-26T09:57:47.706Z,2941
2018-04-26T09:58:47.776Z,2795
2018-04-26T09:59:47.712Z,3330
2018-04-26T10:00:47.780Z,2542
2018-04-26T10:01:47.828Z,2745
2018-04-26T10:02:47.717Z,2407
2018-04-26T10:03:47.785Z,5895
2018-04-26T10:04:47.783Z,4258
2018-04-26T10:05:47.714Z,2919
2018-04-26T10:06:47.768Z,2716
2018-04-26T10:07:47.776Z,2475
2018-04-26T10:08:47.733Z,2002
2018-04-26T10:09:47.736Z,1833
2018-04-26T10:10:47.693Z,1580
2018-04-26T10:11:47.770Z,1642
2018-04-26T10:12:47.784Z,2008
2018-04-26T10:13:47.697Z,2953
2018-04-26T10:14:47.772Z,6266
2018-04-26T10:15:47.669Z,6288
2018-04-26T10:16:47.722Z,2497
2018-04-26T10:17:47.719Z,6345
2018-04-26T10:18:47.796Z,6536
2018-04-26T10:19:47.794Z,2446
2018-04-26T10:20:47.729Z,4528
2018-04-26T10:21:47.797Z,5675
2018-04-26T10:22:47.797Z,2081
2018-04-26T10:23:47.824Z,2041
2018-04-26T10:24:47.796Z,1901
2018-04-26T10:25:47.728Z,3324
2018-04-26T10:26:47.726Z,1316
2018-04-26T10:27:47.800Z,1147
2018-04-26T10:28:47.798Z,804
2018-04-26T10:29:47.731Z,618
2018-04-26T10:30:47.801Z,579
2018-04-26T10:31:47.728Z,607
2018-04-26T10:32:47.801Z,742
2018-04-26T10:33:47.804Z,933
2018-04-26T10:34:47.804Z,1091
2018-04-26T10:35:47.801Z,1192
2018-04-26T10:36:47.806Z,1198
2018-04-26T10:37:47.733Z,1215
2018-04-26T10:38:47.802Z,1479
2018-04-26T10:39:47.756Z,1974
2018-04-26T10:40:47.807Z,2863
2018-04-26T10:41:47.738Z,4854
2018-04-26T10:42:47.809Z,4455
2018-04-26T10:43:47.745Z,5011
2018-04-26T10:44:47.810Z,4736
2018-04-26T10:45:47.739Z,5793
2018-04-26T10:46:47.858Z,5101
2018-04-26T10:47:47.774Z,5906
2018-04-26T10:48:47.840Z,5641
2018-04-26T10:49:47.846Z,5563
2018-04-26T10:50:47.788Z,5439
2018-04-26T10:51:47.825Z,5321
2018-04-26T10:52:47.767Z,5394
2018-04-26T10:53:47.843Z,5214
2018-04-26T10:54:47.837Z,5203
2018-04-26T10:55:47.911Z,5248
2018-04-26T10:56:47.803Z,5343
2018-04-26T10:57:47.798Z,5664
2018-04-26T10:58:47.806Z,2064
2018-04-26T10:59:47.809Z,2036
2018-04-26T11:00:47.700Z,3178
2018-04-26T11:01:47.764Z,1794
2018-04-26T11:02:47.810Z,5945
2018-04-26T11:03:47.803Z,5895
2018-04-26T11:04:47.771Z,5715
2018-04-26T11:05:47.724Z,5686
2018-04-26T11:06:47.854Z,6091
2018-04-26T11:07:47.741Z,6086
2018-04-26T11:08:47.839Z,3341
2018-04-26T11:09:47.778Z,6210
2018-04-26T11:10:47.720Z,6502
2018-04-26T11:11:47.842Z,6243
2018-04-26T11:12:47.733Z,6440
2018-04-26T11:13:47.778Z,6418
2018-04-26T11:14:47.820Z,6255
2018-04-26T11:15:47.805Z,6260
2018-04-26T11:16:47.859Z,2857
2018-04-26T11:17:47.852Z,6288
2018-04-26T11:18:47.802Z,6266
2018-04-26T11:20:47.868Z,2356
2018-04-26T11:21:47.796Z,2756
2018-04-26T11:22:47.741Z,3060
2018-04-26T11:24:47.851Z,6435
2018-04-26T11:25:47.759Z,6333
2018-04-26T11:26:47.837Z,6204
2018-04-26T11:27:47.767Z,2857
2018-04-26T11:28:47.766Z,2542
2018-04-26T11:29:47.770Z,2351
2018-04-26T11:30:47.853Z,2250
2018-04-26T11:31:47.767Z,2143
2018-04-26T11:32:47.864Z,2002
2018-04-26T11:33:47.770Z,2013
2018-04-26T11:34:47.845Z,2278
2018-04-26T11:35:47.840Z,2233
2018-04-26T11:36:47.872Z,2266
2018-04-26T11:37:47.773Z,2503
2018-04-26T11:38:47.844Z,3341
2018-04-26T11:39:47.787Z,4961
2018-04-26T11:40:47.846Z,5760
2018-04-26T11:41:47.774Z,6592
2018-04-26T11:42:47.847Z,2941
2018-04-26T11:43:47.775Z,3375
2018-04-26T11:44:47.844Z,2278
2018-04-26T11:45:47.850Z,2210
2018-04-26T11:46:47.925Z,2154
2018-04-26T11:47:47.755Z,2840
2018-04-26T11:48:47.788Z,1794
2018-04-26T11:49:47.734Z,1563
2018-04-26T11:50:47.720Z,1411
2018-04-26T11:51:47.844Z,1170
2018-04-26T11:52:47.810Z,877
2018-04-26T11:53:47.759Z,680
2018-04-26T11:54:47.802Z,635
2018-04-26T11:55:47.839Z,742
2018-04-26T11:56:47.749Z,855
2018-04-26T11:57:47.830Z,871
2018-04-26T11:58:47.728Z,826
2018-04-26T11:59:47.749Z,787
2018-04-26T12:00:47.830Z,939
2018-04-26T12:01:47.755Z,1153
2018-04-26T12:02:47.847Z,1310
2018-04-26T12:03:47.837Z,1316
2018-04-26T12:04:47.814Z,1175
2018-04-26T12:05:47.748Z,1029
2018-04-26T12:06:47.880Z,860
2018-04-26T12:07:47.913Z,703
2018-04-26T12:08:47.888Z,590
2018-04-26T12:09:47.781Z,523
2018-04-26T12:10:47.894Z,483
2018-04-26T12:11:47.894Z,489
2018-04-26T12:12:47.884Z,517
2018-04-26T12:13:47.831Z,556
2018-04-26T12:14:47.881Z,568
2018-04-26T12:15:47.882Z,523
2018-04-26T12:16:47.800Z,450
2018-04-26T12:17:47.729Z,399
2018-04-26T12:18:47.815Z,371
2018-04-26T12:19:47.739Z,382
2018-04-26T12:20:47.734Z,450
2018-04-26T12:21:47.743Z,517
2018-04-26T12:22:47.854Z,545
2018-04-26T12:23:47.735Z,500
2018-04-26T12:24:47.806Z,427
2018-04-26T12:25:47.769Z,410
2018-04-26T12:26:47.903Z,455
2018-04-26T12:27:47.898Z,528
2018-04-26T12:28:47.814Z,568
2018-04-26T12:29:47.775Z,585
2018-04-26T12:30:47.897Z,601
2018-04-26T12:31:47.847Z,635
2018-04-26T12:32:47.784Z,703
2018-04-26T12:33:47.905Z,804
2018-04-26T12:34:47.849Z,922
2018-04-26T12:35:47.844Z,1057
2018-04-26T12:36:47.849Z,1141
2018-04-26T12:37:47.840Z,1074
2018-04-26T12:38:47.862Z,939
2018-04-26T12:39:47.835Z,939
2018-04-26T12:40:47.848Z,950
2018-04-26T12:41:47.911Z,877
2018-04-26T12:42:47.788Z,843
2018-04-26T12:43:47.851Z,933
2018-04-26T12:44:47.790Z,1035
2018-04-26T12:45:47.920Z,1248
2018-04-26T12:46:47.787Z,1620
2018-04-26T12:47:47.886Z,2025
2018-04-26T12:48:47.850Z,2289
2018-04-26T12:49:47.921Z,2407
2018-04-26T12:50:47.843Z,2497
2018-04-26T12:51:47.795Z,3285
2018-04-26T12:52:47.815Z,2874
2018-04-26T12:53:47.919Z,3830
2018-04-26T12:54:47.864Z,5394
2018-04-26T12:55:47.909Z,5506
2018-04-26T12:56:47.907Z,5360
2018-04-26T12:57:47.856Z,5186
2018-04-26T12:58:47.852Z,3943
2018-04-26T12:59:47.909Z,3133
2018-04-26T13:00:47.887Z,4213
2018-04-26T13:01:48.013Z,4252
2018-04-26T13:02:47.893Z,5028
2018-04-26T13:03:47.923Z,4910
2018-04-26T13:04:47.863Z,4387
2018-04-26T13:05:47.861Z,4899
2018-04-26T13:06:47.866Z,2565
2018-04-26T13:07:47.836Z,4168
2018-04-26T13:08:47.879Z,2137
2018-04-26T13:09:47.839Z,2081
2018-04-26T13:10:47.864Z,2109
2018-04-26T13:11:47.916Z,2306
2018-04-26T13:12:47.952Z,2520
2018-04-26T13:13:47.930Z,2643
2018-04-26T13:14:47.929Z,2902
2018-04-26T13:15:47.941Z,2413
2018-04-26T13:16:47.936Z,2092
2018-04-26T13:17:47.876Z,2064
2018-04-26T13:18:47.806Z,2896
2018-04-26T13:19:47.927Z,4196
2018-04-26T13:20:47.938Z,2655
2018-04-26T13:21:47.889Z,3324
2018-04-26T13:22:47.827Z,4876
2018-04-26T13:23:47.869Z,2880
2018-04-26T13:24:47.909Z,3273
2018-04-26T13:25:47.914Z,3571
2018-04-26T13:26:47.946Z,4702
2018-04-26T13:27:48.011Z,4663
2018-04-26T13:28:47.844Z,4702
2018-04-26T13:29:47.872Z,4635
2018-04-26T13:30:47.911Z,3268
2018-04-26T13:31:47.915Z,2340
2018-04-26T13:32:47.946Z,4893
2018-04-26T13:33:47.851Z,4618
2018-04-26T13:34:47.814Z,2188
2018-04-26T13:35:47.921Z,4674
2018-04-26T13:36:47.851Z,2790
2018-04-26T13:37:47.883Z,2587
2018-04-26T13:38:47.873Z,4820
2018-04-26T13:39:47.973Z,2536
2018-04-26T13:40:47.931Z,2497
2018-04-26T13:41:47.959Z,3099
2018-04-26T13:42:47.875Z,3560
2018-04-26T13:43:47.822Z,2278
2018-04-26T13:44:47.820Z,2086
2018-04-26T13:45:47.943Z,2098
2018-04-26T13:46:47.951Z,2238
2018-04-26T13:47:47.922Z,2373
2018-04-26T13:48:47.881Z,3633
2018-04-26T13:49:47.881Z,4078
2018-04-26T13:50:47.890Z,2323
2018-04-26T13:51:48.034Z,2176
2018-04-26T13:52:47.996Z,2182
2018-04-26T13:53:47.894Z,2081
2018-04-26T13:54:47.832Z,2120